Time;durP1;ratioP1;P1;durP2;ratioP2;P2;SDS_P1;SDS_P2;PMS_P1;PMS_P2;Temp;Humidity;BMP_temperature;BMP_pressure;BME280_temperature;BME280_humidity;BME280_pressure;Samples;Min_cycle;Max_cycle;Signal;HPM_P1;HPM_P2
2023/09/14 00:01:07;;;;;;;6.30;3.63;;;;;;;15.38;100.00;92798.38;5026043;28;20507;-79
2023/09/14 00:03:33;;;;;;;5.63;3.70;;;;;;;15.35;100.00;92795.56;5029015;28;20030;-79
2023/09/14 00:05:58;;;;;;;8.05;3.42;;;;;;;15.34;100.00;92791.38;5019398;28;20080;-79
2023/09/14 00:08:24;;;;;;;6.57;3.75;;;;;;;15.33;100.00;92785.34;5036074;28;20022;-78
2023/09/14 00:10:58;;;;;;;5.90;3.40;;;;;;;15.32;100.00;92780.34;5023445;28;20514;-79
2023/09/14 00:13:24;;;;;;;6.72;3.58;;;;;;;15.34;100.00;92778.19;5001035;28;20171;-78
2023/09/14 00:15:50;;;;;;;6.68;3.38;;;;;;;15.31;100.00;92782.22;5032386;28;20076;-78
2023/09/14 00:18:16;;;;;;;5.68;3.20;;;;;;;15.34;100.00;92780.81;5024770;28;20389;-78
2023/09/14 00:20:42;;;;;;;6.25;3.08;;;;;;;15.36;100.00;92783.94;5030467;28;20033;-78
2023/09/14 00:23:07;;;;;;;5.68;3.45;;;;;;;15.35;100.00;92774.47;5035490;28;20038;-78
2023/09/14 00:25:33;;;;;;;5.43;3.00;;;;;;;15.36;100.00;92773.38;5020343;28;20033;-79
2023/09/14 00:27:59;;;;;;;5.53;3.20;;;;;;;15.33;100.00;92777.41;5027570;28;20057;-79
2023/09/14 00:30:25;;;;;;;6.13;3.50;;;;;;;15.31;100.00;92768.25;5024462;28;20049;-78
2023/09/14 00:32:52;;;;;;;5.35;3.35;;;;;;;15.32;100.00;92777.72;5034399;28;20665;-79
2023/09/14 00:35:19;;;;;;;5.88;3.50;;;;;;;15.32;100.00;92772.44;5012004;28;20030;-78
2023/09/14 00:37:45;;;;;;;7.93;3.40;;;;;;;15.25;100.00;92761.56;5017877;28;20434;-78
2023/09/14 00:40:12;;;;;;;5.63;3.05;;;;;;;15.27;100.00;92764.69;5024465;28;20030;-78
2023/09/14 00:42:41;;;;;;;4.88;3.15;;;;;;;15.25;100.00;92770.25;5014135;28;20041;-78
2023/09/14 00:45:12;;;;;;;5.80;3.40;;;;;;;15.20;100.00;92765.13;5025144;28;20029;-79
2023/09/14 00:47:50;;;;;;;15.18;4.30;;;;;;;15.24;100.00;92770.56;5016106;28;20038;-79
2023/09/14 00:50:17;;;;;;;6.80;3.30;;;;;;;15.20;100.00;92759.88;5026046;28;20030;-78
2023/09/14 00:52:46;;;;;;;6.47;3.42;;;;;;;15.23;100.00;92761.09;5026280;28;20306;-79
2023/09/14 00:55:17;;;;;;;5.30;3.45;;;;;;;15.22;100.00;92762.19;5009814;28;20037;-79
2023/09/14 00:57:44;;;;;;;5.75;3.08;;;;;;;15.19;100.00;92753.78;5021890;28;20488;-79
2023/09/14 01:00:11;;;;;;;5.82;3.30;;;;;;;15.23;100.00;92758.47;5009306;28;20476;-79
2023/09/14 01:02:40;;;;;;;6.18;3.40;;;;;;;15.20;100.00;92755.34;5030617;28;20521;-79
2023/09/14 01:05:07;;;;;;;6.55;3.30;;;;;;;15.18;100.00;92762.03;5025686;28;20025;-78
2023/09/14 01:07:33;;;;;;;9.23;3.80;;;;;;;15.20;100.00;92760.63;5036170;28;20037;-79
2023/09/14 01:09:59;;;;;;;7.60;3.30;;;;;;;15.14;100.00;92753.94;5034814;28;20037;-79
2023/09/14 01:12:26;;;;;;;7.05;3.60;;;;;;;15.10;100.00;92760.13;5014701;28;20088;-79
2023/09/14 01:15:29;;;;;;;5.03;3.60;;;;;;;15.11;100.00;92756.44;5011993;28;20056;-79
2023/09/14 01:18:06;;;;;;;5.50;3.35;;;;;;;15.08;100.00;92755.16;5010622;28;20673;-79
2023/09/14 01:21:09;;;;;;;5.80;3.30;;;;;;;15.08;100.00;92757.03;5017751;28;20375;-79
2023/09/14 01:24:17;;;;;;;5.07;3.05;;;;;;;15.11;100.00;92749.28;5007019;28;20086;-78
2023/09/14 01:26:44;;;;;;;6.82;3.35;;;;;;;15.14;100.00;92755.81;5016072;28;20145;-79
2023/09/14 01:29:10;;;;;;;5.72;3.20;;;;;;;15.10;100.00;92750.38;5009027;28;20046;-79
2023/09/14 01:31:35;;;;;;;6.32;3.25;;;;;;;15.09;100.00;92742.78;5011651;28;20037;-79
2023/09/14 01:34:02;;;;;;;7.00;3.20;;;;;;;15.07;100.00;92744.94;5026555;28;20468;-79
2023/09/14 01:36:47;;;;;;;5.18;3.50;;;;;;;15.05;100.00;92744.47;5006727;28;20033;-79
2023/09/14 01:39:13;;;;;;;7.38;3.40;;;;;;;15.04;100.00;92735.78;5010432;28;20057;-79
2023/09/14 01:41:39;;;;;;;6.13;3.42;;;;;;;15.07;100.00;92737.03;5008251;28;20488;-79
2023/09/14 01:44:05;;;;;;;6.03;3.38;;;;;;;15.11;100.00;92740.63;5032175;28;20124;-79
2023/09/14 01:46:34;;;;;;;6.32;3.63;;;;;;;15.09;100.00;92733.00;5013739;28;20038;-78
2023/09/14 01:49:00;;;;;;;6.75;3.10;;;;;;;15.11;100.00;92736.13;5013272;28;20487;-78
2023/09/14 01:51:26;;;;;;;5.13;3.05;;;;;;;15.10;100.00;92739.81;5010670;28;20037;-79
2023/09/14 01:53:51;;;;;;;8.52;3.33;;;;;;;15.11;100.00;92736.13;5027504;28;20506;-78
2023/09/14 01:56:17;;;;;;;7.88;3.20;;;;;;;15.07;100.00;92740.44;5004377;28;20400;-79
2023/09/14 01:58:42;;;;;;;5.32;3.20;;;;;;;15.08;100.00;92741.22;5003986;28;20370;-79
2023/09/14 02:01:08;;;;;;;5.05;3.10;;;;;;;15.06;100.00;92733.59;5009631;28;20057;-78
2023/09/14 02:03:35;;;;;;;5.65;2.88;;;;;;;15.04;100.00;92740.28;5018494;23;21110;-94
2023/09/14 02:06:12;;;;;;;4.85;2.70;;;;;;;14.83;100.00;92711.06;4985621;28;20045;-94
2023/09/14 02:08:37;;;;;;;7.07;3.08;;;;;;;14.82;100.00;92709.53;4980419;28;20542;-93
2023/09/14 02:11:03;;;;;;;5.13;3.00;;;;;;;14.98;100.00;92731.75;4994364;28;20048;-93
2023/09/14 02:13:31;;;;;;;5.80;2.42;;;;;;;14.94;100.00;92722.88;4987266;28;20045;-93
2023/09/14 02:15:57;;;;;;;7.85;2.30;;;;;;;14.90;100.00;92711.41;5004952;28;20124;-93
2023/09/14 02:18:23;;;;;;;5.05;2.63;;;;;;;14.99;100.00;92726.16;4989528;28;20073;-94
2023/09/14 02:20:51;;;;;;;4.15;2.40;;;;;;;14.95;100.00;92719.97;4991154;28;20190;-92
2023/09/14 02:23:20;;;;;;;4.20;2.60;;;;;;;14.91;100.00;92711.09;4981744;28;20147;-92
2023/09/14 02:25:45;;;;;;;4.57;2.65;;;;;;;15.06;100.00;92724.91;4992741;28;20073;-91
2023/09/14 02:28:13;;;;;;;4.95;2.55;;;;;;;15.01;100.00;92725.84;5007193;28;20101;-93
2023/09/14 02:30:39;;;;;;;4.10;2.38;;;;;;;14.99;100.00;92733.28;5003305;28;20053;-93
2023/09/14 02:33:09;;;;;;;4.75;2.42;;;;;;;14.96;100.00;92723.34;4978142;28;20092;-92
2023/09/14 02:35:36;;;;;;;10.00;2.47;;;;;;;14.98;100.00;92731.75;4960070;28;20491;-91
2023/09/14 02:38:02;;;;;;;6.57;2.30;;;;;;;14.94;100.00;92717.63;4988296;28;20049;-93
2023/09/14 02:40:29;;;;;;;6.00;2.30;;;;;;;14.91;100.00;92718.25;4989483;28;21472;-92
2023/09/14 02:42:57;;;;;;;5.13;2.45;;;;;;;14.92;100.00;92719.78;4996403;28;20507;-93
2023/09/14 02:45:23;;;;;;;5.63;2.00;;;;;;;14.83;100.00;92711.06;4988635;28;20029;-94
2023/09/14 02:47:49;;;;;;;3.97;2.20;;;;;;;14.89;100.00;92718.53;5015474;28;20037;-92
2023/09/14 02:50:15;;;;;;;3.58;2.15;;;;;;;14.83;100.00;92716.34;4998293;28;20044;-91
2023/09/14 02:52:41;;;;;;;6.18;2.17;;;;;;;14.84;100.00;92710.78;4985094;28;20048;-92
2023/09/14 02:55:07;;;;;;;3.40;2.05;;;;;;;14.86;100.00;92718.38;5007527;28;20029;-92
2023/09/14 02:57:32;;;;;;;3.83;2.00;;;;;;;14.85;100.00;92720.22;4972571;28;20490;-94
2023/09/14 02:59:58;;;;;;;5.68;2.08;;;;;;;14.84;100.00;92723.16;4994915;28;20033;-93
2023/09/14 03:02:24;;;;;;;4.85;2.00;;;;;;;14.82;100.00;92722.72;4983818;28;20042;-91
2023/09/14 03:04:50;;;;;;;3.70;2.10;;;;;;;14.77;100.00;92713.88;5000254;28;20502;-94
2023/09/14 03:07:17;;;;;;;3.65;2.00;;;;;;;14.81;100.00;92721.91;4975289;28;20030;-94
2023/09/14 03:09:42;;;;;;;6.63;2.00;;;;;;;14.75;100.00;92715.25;4977672;28;20034;-93
2023/09/14 03:12:09;;;;;;;4.10;2.00;;;;;;;14.75;100.00;92721.28;4953237;28;20037;-93
2023/09/14 03:14:34;;;;;;;4.43;2.20;;;;;;;14.77;100.00;92724.41;4978746;28;20116;-92
2023/09/14 03:17:00;;;;;;;4.30;2.20;;;;;;;14.75;100.00;92713.38;4972891;28;20491;-94
2023/09/14 03:19:26;;;;;;;4.70;2.08;;;;;;;14.80;100.00;92712.47;4967817;28;20043;-93
2023/09/14 03:21:52;;;;;;;3.53;2.00;;;;;;;14.79;100.00;92713.53;4974430;28;20065;-93
2023/09/14 03:24:19;;;;;;;4.07;1.88;;;;;;;14.62;100.00;92698.47;4974221;28;20041;-94
2023/09/14 03:26:46;;;;;;;3.90;2.08;;;;;;;14.73;100.00;92707.66;4981446;28;20196;-92
2023/09/14 03:29:12;;;;;;;5.32;2.10;;;;;;;14.71;100.00;92707.16;4977318;28;20034;-93
2023/09/14 03:31:38;;;;;;;3.95;2.17;;;;;;;14.67;100.00;92705.47;4978597;28;20037;-92
2023/09/14 03:34:07;;;;;;;5.90;2.08;;;;;;;14.61;100.00;92691.63;4973375;28;20046;-93
2023/09/14 03:36:36;;;;;;;5.68;2.10;;;;;;;14.56;100.00;92689.16;4979973;28;20099;-92
2023/09/14 03:39:02;;;;;;;5.85;2.00;;;;;;;14.67;100.00;92706.22;5003096;28;20042;-91
2023/09/14 03:41:35;;;;;;;4.90;2.00;;;;;;;14.63;100.00;92692.09;4984879;28;20038;-92
2023/09/14 03:44:01;;;;;;;4.57;2.00;;;;;;;14.62;100.00;92693.19;4977608;28;20522;-92
2023/09/14 03:46:27;;;;;;;4.03;1.98;;;;;;;14.65;100.00;92697.84;4968954;28;20133;-93
2023/09/14 03:48:55;;;;;;;9.43;2.45;;;;;;;14.61;100.00;92690.88;4976859;28;20529;-93
2023/09/14 03:51:21;;;;;;;3.85;1.98;;;;;;;14.48;100.00;92674.84;4966621;28;20023;-93
2023/09/14 03:53:46;;;;;;;3.22;1.80;;;;;;;14.65;100.00;92708.38;4982006;28;20038;-92
2023/09/14 03:56:12;;;;;;;3.35;1.85;;;;;;;14.46;100.00;92689.41;4972587;28;20386;-93
2023/09/14 03:58:38;;;;;;;4.13;1.90;;;;;;;14.50;100.00;92692.97;4967839;28;20047;-92
2023/09/14 04:01:04;;;;;;;3.05;1.80;;;;;;;14.56;100.00;92704.94;4982421;28;20378;-92
2023/09/14 04:03:30;;;;;;;3.05;1.80;;;;;;;14.48;100.00;92700.41;4966415;28;20045;-93
2023/09/14 04:05:56;;;;;;;5.75;1.80;;;;;;;14.31;100.00;92675.53;5000659;28;20033;-94
2023/09/14 04:08:26;;;;;;;4.53;1.73;;;;;;;14.35;100.00;92679.13;5016514;28;20029;-93
2023/09/14 04:10:52;;;;;;;3.42;1.80;;;;;;;14.43;100.00;92701.31;4983802;28;20100;-93
2023/09/14 04:13:31;;;;;;;2.88;1.75;;;;;;;14.42;100.00;92696.34;4990521;28;20430;-92
2023/09/14 04:16:02;;;;;;;2.80;1.80;;;;;;;14.41;100.00;92695.59;5004478;28;20385;-92
2023/09/14 04:18:33;;;;;;;4.07;1.70;;;;;;;14.46;100.00;92705.22;4994759;28;20037;-91
2023/09/14 04:20:58;;;;;;;4.10;2.10;;;;;;;14.42;100.00;92702.41;4999315;28;20497;-93
2023/09/14 04:23:24;;;;;;;4.75;2.25;;;;;;;14.35;100.00;92687.03;4992572;28;20116;-94
2023/09/14 04:25:51;;;;;;;3.13;1.80;;;;;;;14.31;100.00;92685.31;4988932;28;20498;-92
2023/09/14 04:28:18;;;;;;;4.53;2.38;;;;;;;14.33;100.00;92694.47;4992943;28;20033;-93
2023/09/14 04:31:02;;;;;;;3.67;2.10;;;;;;;14.31;100.00;92690.56;5004361;28;20056;-94
2023/09/14 04:33:31;;;;;;;7.55;2.30;;;;;;;14.29;100.00;92693.50;4998433;28;20060;-93
2023/09/14 04:35:58;;;;;;;4.82;2.47;;;;;;;14.30;100.00;92694.31;4977366;28;20038;-91
2023/09/14 04:38:24;;;;;;;4.70;1.90;;;;;;;14.30;100.00;92691.66;5008201;28;21030;-90
2023/09/14 04:40:50;;;;;;;3.70;1.83;;;;;;;14.31;100.00;92691.34;5001524;28;20030;-92
2023/09/14 04:43:16;;;;;;;4.68;2.00;;;;;;;14.31;100.00;92699.25;4988478;28;20397;-92
2023/09/14 04:45:44;;;;;;;3.53;1.80;;;;;;;14.27;100.00;92705.41;4993408;28;20028;-93
2023/09/14 04:48:10;;;;;;;3.45;1.90;;;;;;;14.20;100.00;92705.84;5007707;28;20057;-91
2023/09/14 04:50:35;;;;;;;3.45;1.88;;;;;;;14.03;100.00;92690.00;5002408;28;20095;-93
2023/09/14 04:53:01;;;;;;;3.83;2.20;;;;;;;14.16;100.00;92723.31;5000534;28;20045;-93
2023/09/14 04:55:29;;;;;;;9.95;2.15;;;;;;;13.94;100.00;92689.94;5001872;28;20034;-92
2023/09/14 04:57:55;;;;;;;5.45;2.30;;;;;;;14.07;100.00;92717.25;5007196;28;20042;-91
2023/09/14 05:00:24;;;;;;;3.60;2.20;;;;;;;14.09;100.00;92723.00;4988636;28;20545;-92
2023/09/14 05:02:49;;;;;;;4.15;2.15;;;;;;;14.00;100.00;92704.50;4996148;28;20125;-93
2023/09/14 05:05:15;;;;;;;6.35;2.65;;;;;;;14.07;100.00;92717.25;4987574;28;20046;-93
2023/09/14 05:07:43;;;;;;;4.15;2.40;;;;;;;14.00;100.00;92716.91;4988027;28;20042;-93
2023/09/14 05:10:10;;;;;;;4.20;2.20;;;;;;;14.00;100.00;92719.53;4999227;28;20025;-92
2023/09/14 05:12:36;;;;;;;4.50;2.20;;;;;;;14.04;100.00;92726.53;4992264;23;20682;-83
2023/09/14 05:15:02;;;;;;;3.90;2.42;;;;;;;14.07;100.00;92739.09;4988386;28;20057;-84
2023/09/14 05:17:28;;;;;;;4.07;2.22;;;;;;;14.07;100.00;92733.03;4990249;28;20039;-86
2023/09/14 05:19:54;;;;;;;4.63;2.10;;;;;;;14.10;100.00;92733.22;4992972;28;20044;-83
2023/09/14 05:22:21;;;;;;;4.57;2.05;;;;;;;14.14;100.00;92741.31;4977166;28;20049;-84
2023/09/14 05:24:47;;;;;;;6.93;2.30;;;;;;;14.18;100.00;92749.38;4987684;28;20062;-83
2023/09/14 05:27:13;;;;;;;3.95;2.35;;;;;;;14.17;100.00;92743.31;4996143;28;20077;-83
2023/09/14 05:29:39;;;;;;;4.95;2.10;;;;;;;14.23;100.00;92749.22;4992278;28;20065;-84
2023/09/14 05:32:04;;;;;;;6.90;2.10;;;;;;;14.24;100.00;92756.06;4973707;28;20034;-84
2023/09/14 05:34:30;;;;;;;7.03;2.33;;;;;;;14.24;100.00;92756.84;4995530;28;20033;-83
2023/09/14 05:36:56;;;;;;;6.10;2.35;;;;;;;14.22;100.00;92752.94;4994271;28;20053;-83
2023/09/14 05:39:22;;;;;;;3.90;2.05;;;;;;;14.21;100.00;92757.44;4996624;28;20117;-83
2023/09/14 05:41:48;;;;;;;6.30;2.28;;;;;;;14.28;100.00;92763.06;4993487;28;20064;-84
2023/09/14 05:44:13;;;;;;;4.32;2.10;;;;;;;14.31;100.00;92759.03;4997478;28;20034;-84
2023/09/14 05:46:41;;;;;;;4.07;2.22;;;;;;;14.36;100.00;92757.06;4992139;28;20581;-84
2023/09/14 05:49:06;;;;;;;4.10;2.53;;;;;;;14.41;100.00;92765.91;4995932;28;20448;-84
2023/09/14 05:51:33;;;;;;;5.32;2.63;;;;;;;14.44;100.00;92762.69;4988411;28;20125;-84
2023/09/14 05:53:59;;;;;;;5.72;2.17;;;;;;;14.48;100.00;92766.25;4995224;28;20525;-83
2023/09/14 05:56:25;;;;;;;6.22;2.42;;;;;;;14.61;100.00;92772.53;4983466;28;20033;-85
2023/09/14 05:58:51;;;;;;;3.78;2.20;;;;;;;14.73;100.00;92772.75;4995230;28;20034;-84
2023/09/14 06:01:17;;;;;;;3.35;2.00;;;;;;;14.82;100.00;92778.81;4989584;28;20049;-84
2023/09/14 06:03:42;;;;;;;4.05;2.00;;;;;;;15.24;100.00;92779.25;4989988;28;20033;-83
2023/09/14 06:06:08;;;;;;;3.85;1.80;;;;;;;15.64;100.00;92779.13;5006463;28;20050;-84
2023/09/14 06:08:35;;;;;;;3.70;2.00;;;;;;;16.04;100.00;92786.94;5003663;28;20058;-83
2023/09/14 06:11:02;;;;;;;2.97;1.75;;;;;;;16.29;100.00;92787.22;4991478;28;20080;-84
2023/09/14 06:13:28;;;;;;;3.47;1.70;;;;;;;16.85;100.00;92794.06;4989964;28;20049;-84
2023/09/14 06:15:54;;;;;;;3.28;1.70;;;;;;;17.20;100.00;92793.94;4999023;28;20425;-84
2023/09/14 06:18:20;;;;;;;3.75;1.90;;;;;;;17.22;100.00;92790.94;5000114;28;20028;-84
2023/09/14 06:20:46;;;;;;;3.38;1.70;;;;;;;17.22;100.00;92799.66;4981628;28;20080;-84
2023/09/14 06:23:11;;;;;;;3.60;1.60;;;;;;;17.28;100.00;92803.69;5005301;28;20033;-85
2023/09/14 06:25:37;;;;;;;2.60;1.60;;;;;;;17.68;100.00;92803.28;5003455;28;20096;-84
2023/09/14 06:28:03;;;;;;;3.22;1.70;;;;;;;18.03;100.00;92805.69;4998267;28;20221;-83
2023/09/14 06:30:29;;;;;;;3.65;1.95;;;;;;;17.91;100.00;92810.94;5007617;28;20034;-83
2023/09/14 06:32:55;;;;;;;3.63;1.70;;;;;;;17.91;100.00;92808.28;4997860;28;20030;-84
2023/09/14 06:35:21;;;;;;;2.85;1.67;;;;;;;17.94;100.00;92812.94;4986528;28;20038;-84
2023/09/14 06:37:47;;;;;;;4.30;1.70;;;;;;;18.60;100.00;92809.56;5005021;28;20030;-84
2023/09/14 06:40:14;;;;;;;2.63;1.58;;;;;;;19.81;100.00;92817.16;5006326;28;20038;-83
2023/09/14 06:42:41;;;;;;;3.10;1.80;;;;;;;21.06;100.00;92819.75;5001646;28;20413;-85
2023/09/14 06:45:07;;;;;;;4.47;2.05;;;;;;;21.99;100.00;92813.88;4997998;28;20410;-85
2023/09/14 06:47:33;;;;;;;5.40;1.90;;;;;;;22.20;100.00;92820.78;5010354;28;20030;-81
2023/09/14 06:49:59;;;;;;;4.60;1.83;;;;;;;22.39;100.00;92817.38;4992747;28;20026;-85
2023/09/14 06:52:25;;;;;;;4.50;1.95;;;;;;;22.26;100.00;92826.66;4994333;28;20054;-85
2023/09/14 06:54:50;;;;;;;3.42;1.95;;;;;;;23.46;100.00;92829.97;5003724;28;20474;-85
2023/09/14 06:57:16;;;;;;;5.20;2.00;;;;;;;24.14;100.00;92835.53;4984672;28;20061;-85
2023/09/14 06:59:42;;;;;;;3.25;1.80;;;;;;;24.76;100.00;92845.06;4982749;28;20053;-85
2023/09/14 07:02:07;;;;;;;4.88;2.50;;;;;;;24.27;100.00;92839.50;4995777;28;20034;-85
2023/09/14 07:04:34;;;;;;;4.85;1.98;;;;;;;24.39;100.00;92837.75;4984618;28;20116;-85
2023/09/14 07:07:00;;;;;;;4.57;2.00;;;;;;;23.86;100.00;92836.66;5007260;28;20043;-85
2023/09/14 07:09:26;;;;;;;3.40;2.00;;;;;;;23.82;100.00;92838.53;4998772;28;20030;-85
2023/09/14 07:11:52;;;;;;;4.93;2.20;;;;;;;23.13;100.00;92837.81;5011071;28;20081;-84
2023/09/14 07:14:17;;;;;;;8.65;2.25;;;;;;;22.53;100.00;92848.88;4999969;28;20045;-84
2023/09/14 07:16:43;;;;;;;12.43;2.60;;;;;;;21.94;100.00;92848.81;5003967;28;20037;-83
2023/09/14 07:19:09;;;;;;;4.07;2.20;;;;;;;21.27;100.00;92845.34;4974222;28;20037;-84
2023/09/14 07:21:37;;;;;;;10.90;4.18;;;;;;;21.23;100.00;92855.91;5005647;28;20393;-84
2023/09/14 07:24:07;;;;;;;7.38;3.22;;;;;;;20.72;100.00;92853.13;4982498;28;20030;-85
2023/09/14 07:26:34;;;;;;;6.13;3.17;;;;;;;20.44;100.00;92853.84;5005799;28;20057;-84
2023/09/14 07:28:59;;;;;;;7.68;3.03;;;;;;;20.49;100.00;92856.28;5007133;28;20035;-84
2023/09/14 07:31:25;;;;;;;4.85;2.70;;;;;;;20.58;100.00;92864.91;5003715;28;20075;-85
2023/09/14 07:33:52;;;;;;;5.68;3.00;;;;;;;20.64;100.00;92862.00;4999129;28;20065;-84
2023/09/14 07:36:18;;;;;;;7.35;3.03;;;;;;;20.58;100.00;92864.16;4993565;28;20034;-85
2023/09/14 07:38:44;;;;;;;5.28;2.80;;;;;;;20.35;100.00;92869.16;5013135;28;20120;-85
2023/09/14 07:41:10;;;;;;;6.43;2.90;;;;;;;20.63;100.00;92866.56;4985304;28;20045;-84
2023/09/14 07:43:36;;;;;;;7.72;2.90;;;;;;;20.25;100.00;92869.66;4995975;28;20101;-84
2023/09/14 07:46:01;;;;;;;5.43;2.72;;;;;;;19.99;100.00;92870.03;4994536;28;20444;-83
2023/09/14 07:48:28;;;;;;;5.53;2.50;;;;;;;19.88;100.00;92869.72;4991026;28;20109;-84
2023/09/14 07:50:53;;;;;;;5.78;2.58;;;;;;;20.00;100.00;92866.28;4972278;28;20038;-85
2023/09/14 07:53:19;;;;;;;5.88;2.40;;;;;;;20.55;100.00;92873.53;4991549;28;20038;-84
2023/09/14 07:55:50;;;;;;;6.75;2.80;;;;;;;20.95;100.00;92878.03;4991340;28;20033;-83
2023/09/14 07:58:16;;;;;;;5.50;2.77;;;;;;;20.82;100.00;92879.22;4996766;28;20050;-82
2023/09/14 08:00:41;;;;;;;8.57;3.65;;;;;;;20.98;100.00;92881.91;4998441;28;20288;-84
2023/09/14 08:03:09;;;;;;;4.55;2.80;;;;;;;20.95;100.00;92886.03;5010870;28;20500;-86
2023/09/14 08:05:35;;;;;;;7.72;3.45;;;;;;;21.22;100.00;92888.97;5008222;28;20034;-85
2023/09/14 08:08:02;;;;;;;6.85;3.25;;;;;;;20.30;100.00;92885.38;5000656;28;20045;-85
2023/09/14 08:10:29;;;;;;;5.75;2.70;;;;;;;20.57;100.00;92884.63;4991953;28;20030;-84
2023/09/14 08:12:55;;;;;;;5.05;2.22;;;;;;;20.28;100.00;92893.66;4990376;28;20043;-85
2023/09/14 08:15:20;;;;;;;5.88;2.97;;;;;;;20.25;100.00;92894.34;4978394;28;20046;-84
2023/09/14 08:17:46;;;;;;;5.68;3.40;;;;;;;20.33;100.00;92895.31;4994505;28;20034;-85
2023/09/14 08:20:12;;;;;;;5.93;3.50;;;;;;;20.50;100.00;92899.59;4994174;28;20026;-84
2023/09/14 08:22:37;;;;;;;7.43;3.70;;;;;;;20.33;100.00;92896.09;4995330;28;20077;-85
2023/09/14 08:25:06;;;;;;;6.40;3.90;;;;;;;20.59;100.00;92903.69;4981251;28;20034;-85
2023/09/14 08:27:32;;;;;;;5.75;3.20;;;;;;;20.55;100.00;92899.34;4996729;28;21094;-86
2023/09/14 08:29:57;;;;;;;6.65;3.10;;;;;;;20.93;100.00;92904.22;4985886;28;20065;-85
2023/09/14 08:32:24;;;;;;;9.07;3.30;;;;;;;20.77;100.00;92904.16;4981313;28;20065;-85
2023/09/14 08:34:50;;;;;;;9.23;3.30;;;;;;;21.00;100.00;92912.38;4996512;28;20049;-84
2023/09/14 08:37:15;;;;;;;8.88;3.38;;;;;;;20.69;100.00;92907.78;4995244;28;20074;-83
2023/09/14 08:39:41;;;;;;;5.60;3.58;;;;;;;20.92;100.00;92910.66;4970436;28;20474;-85
2023/09/14 08:42:07;;;;;;;7.20;3.80;;;;;;;20.78;100.00;92910.25;4961169;28;20050;-85
2023/09/14 08:44:34;;;;;;;6.53;3.60;;;;;;;20.93;100.00;92914.84;4991640;28;20041;-85
2023/09/14 08:47:03;;;;;;;6.97;3.72;;;;;;;21.12;100.00;92911.56;4995063;28;20094;-85
2023/09/14 08:49:31;;;;;;;6.30;3.92;;;;;;;20.82;100.00;92915.69;4995662;28;20034;-85
2023/09/14 08:51:59;;;;;;;9.95;4.15;;;;;;;20.55;100.00;92918.72;4987426;28;20410;-85
2023/09/14 08:54:25;;;;;;;6.60;3.42;;;;;;;20.43;100.00;92918.78;4995118;28;20034;-85
2023/09/14 08:56:51;;;;;;;9.48;3.58;;;;;;;20.39;100.00;92917.91;4976740;28;20063;-84
2023/09/14 08:59:21;;;;;;;6.70;3.83;;;;;;;20.15;100.00;92916.84;4995739;28;20026;-84
2023/09/14 09:01:50;;;;;;;6.88;3.55;;;;;;;20.10;100.00;92913.66;4991484;28;20045;-83
2023/09/14 09:04:16;;;;;;;5.57;3.30;;;;;;;20.41;100.00;92918.34;4997290;28;20042;-84
2023/09/14 09:06:42;;;;;;;6.22;3.35;;;;;;;20.87;100.00;92915.44;4980073;28;20053;-84
2023/09/14 09:09:10;;;;;;;5.10;3.33;;;;;;;20.69;100.00;92912.28;4998097;28;20077;-84
2023/09/14 09:11:37;;;;;;;5.40;2.88;;;;;;;20.81;100.00;92919.47;4988200;28;20047;-84
2023/09/14 09:14:03;;;;;;;4.95;3.00;;;;;;;20.74;100.00;92928.03;4993277;28;20105;-85
2023/09/14 09:16:29;;;;;;;6.50;2.90;;;;;;;20.70;100.00;92925.25;4972572;28;20093;-85
2023/09/14 09:19:06;;;;;;;4.68;2.88;;;;;;;20.97;100.00;92923.72;4990318;28;20065;-86
2023/09/14 09:21:33;;;;;;;5.75;2.65;;;;;;;20.78;100.00;92926.22;4998051;28;20453;-84
2023/09/14 09:24:07;;;;;;;6.38;2.83;;;;;;;20.80;100.00;92924.00;4998429;28;20061;-84
2023/09/14 09:26:35;;;;;;;6.53;2.92;;;;;;;20.75;100.00;92929.56;4985097;28;20419;-84
2023/09/14 09:29:22;;;;;;;7.00;3.00;;;;;;;20.95;100.00;92935.81;4995816;28;20022;-84
2023/09/14 09:31:52;;;;;;;5.32;2.72;;;;;;;20.81;100.00;92936.19;4998127;28;20038;-84
2023/09/14 09:34:31;;;;;;;5.82;3.28;;;;;;;20.36;100.00;92931.88;4989789;28;20507;-83
2023/09/14 09:36:57;;;;;;;4.90;2.80;;;;;;;20.53;100.00;92936.13;4988442;28;20046;-85
2023/09/14 09:39:24;;;;;;;7.75;3.38;;;;;;;20.89;100.00;92943.25;4998224;28;20027;-84
2023/09/14 09:41:50;;;;;;;5.10;3.03;;;;;;;21.10;100.00;92931.66;4981959;28;20039;-84
2023/09/14 09:44:18;;;;;;;5.68;2.90;;;;;;;20.85;100.00;92931.75;4994568;28;20130;-84
2023/09/14 09:46:44;;;;;;;5.53;3.08;;;;;;;20.94;100.00;92932.38;4993526;28;20113;-84
2023/09/14 09:49:17;;;;;;;4.90;2.80;;;;;;;21.21;100.00;92924.72;4989402;28;20054;-84
2023/09/14 09:51:49;;;;;;;5.05;2.83;;;;;;;21.23;100.00;92930.44;4976510;28;20224;-82
2023/09/14 09:54:18;;;;;;;4.50;2.70;;;;;;;21.42;100.00;92925.25;4987646;28;20039;-84
2023/09/14 09:56:43;;;;;;;5.32;2.90;;;;;;;21.56;100.00;92932.06;4975875;28;20027;-85
2023/09/14 09:59:10;;;;;;;5.35;2.28;;;;;;;21.64;100.00;92933.78;4978566;28;20117;-83
2023/09/14 10:01:39;;;;;;;6.68;2.47;;;;;;;21.92;100.00;92919.56;4995814;28;20030;-83
2023/09/14 10:04:11;;;;;;;4.35;2.70;;;;;;;21.92;100.00;92925.66;4978741;28;20037;-84
2023/09/14 10:06:38;;;;;;;6.97;2.65;;;;;;;21.93;100.00;92918.44;4985694;28;20106;-84
2023/09/14 10:09:16;;;;;;;4.07;2.22;;;;;;;21.82;100.00;92926.22;4996094;28;20430;-84
2023/09/14 10:11:43;;;;;;;8.48;2.58;;;;;;;21.73;100.00;92923.72;4984451;28;20042;-84
2023/09/14 10:14:13;;;;;;;5.07;2.25;;;;;;;22.03;100.00;92913.34;4996473;28;20039;-84
2023/09/14 10:16:41;;;;;;;6.60;2.70;;;;;;;21.98;100.00;92910.22;4995586;28;20488;-84
2023/09/14 10:19:08;;;;;;;5.55;2.67;;;;;;;21.88;100.00;92908.06;4995974;28;20034;-83
2023/09/14 10:21:36;;;;;;;4.20;2.55;;;;;;;21.66;100.00;92902.25;4974131;28;20054;-83
2023/09/14 10:24:05;;;;;;;4.45;2.72;;;;;;;21.75;100.00;92916.16;4968790;28;20406;-83
2023/09/14 10:26:36;;;;;;;4.68;2.30;;;;;;;21.99;100.00;92893.84;4972451;28;20039;-83
2023/09/14 10:29:05;;;;;;;4.47;2.60;;;;;;;22.17;100.00;92893.47;4992304;28;20141;-84
2023/09/14 10:31:32;;;;;;;6.25;4.10;;;;;;;21.60;100.00;92900.97;4993963;28;20481;-85
2023/09/14 10:33:59;;;;;;;5.43;3.00;;;;;;;21.95;100.00;92895.69;4995402;28;20100;-85
2023/09/14 10:36:30;;;;;;;5.20;2.45;;;;;;;21.98;100.00;92897.66;4974112;28;20097;-83
2023/09/14 10:39:00;;;;;;;4.40;2.55;;;;;;;22.18;100.00;92887.78;4994776;28;20105;-85
2023/09/14 10:41:27;;;;;;;4.88;2.72;;;;;;;22.18;100.00;92892.38;4984953;28;20058;-84
2023/09/14 10:43:53;;;;;;;3.83;2.47;;;;;;;22.03;100.00;92893.94;4992246;28;20050;-84
2023/09/14 10:46:25;;;;;;;7.43;2.70;;;;;;;21.99;100.00;92879.75;4998773;28;20516;-84
2023/09/14 10:48:52;;;;;;;6.45;2.53;;;;;;;21.53;100.00;92890.13;4998686;28;20030;-85
2023/09/14 10:51:20;;;;;;;4.85;2.22;;;;;;;21.31;100.00;92878.94;4998979;28;20049;-85
2023/09/14 10:53:46;;;;;;;4.15;2.75;;;;;;;21.75;100.00;92870.88;4995468;28;20133;-84
2023/09/14 10:56:22;;;;;;;5.18;2.60;;;;;;;21.79;100.00;92874.38;5000864;28;20081;-85
2023/09/14 10:58:53;;;;;;;6.70;2.80;;;;;;;22.05;100.00;92865.03;4999750;28;20393;-85
2023/09/14 11:01:27;;;;;;;4.85;2.83;;;;;;;22.01;100.00;92858.84;4973615;28;20038;-84
2023/09/14 11:04:13;;;;;;;6.43;2.35;;;;;;;22.21;100.00;92865.78;4999470;28;20042;-84
2023/09/14 11:06:50;;;;;;;5.07;3.03;;;;;;;22.45;100.00;92850.66;4976696;28;20121;-83
2023/09/14 11:09:17;;;;;;;6.82;3.15;;;;;;;22.20;100.00;92858.91;4993325;28;20533;-84
2023/09/14 11:11:50;;;;;;;4.32;2.72;;;;;;;22.28;100.00;92859.84;4985119;28;20157;-83
2023/09/14 11:14:17;;;;;;;4.70;2.58;;;;;;;22.52;100.00;92858.03;4983529;28;20042;-82
2023/09/14 11:16:49;;;;;;;5.88;3.17;;;;;;;22.53;100.00;92854.22;4984390;28;20023;-83
2023/09/14 11:19:45;;;;;;;6.25;3.17;;;;;;;22.41;100.00;92850.56;4986395;28;20027;-83
2023/09/14 11:22:14;;;;;;;4.78;2.90;;;;;;;22.55;100.00;92842.06;4973518;28;20545;-82
2023/09/14 11:24:41;;;;;;;6.88;3.30;;;;;;;22.44;100.00;92846.44;4995781;28;20080;-84
2023/09/14 11:27:15;;;;;;;6.63;3.00;;;;;;;22.68;100.00;92840.03;4983911;28;20034;-84